sensor_id;sensor_type;location;lat;lon;timestamp;P1;durP1;ratioP1;P2;durP2;ratioP2
13122;SDS011;6627;50.920;12.050;2023-08-06T00:00:33;6.83;;;4.70;;
13122;SDS011;6627;50.920;12.050;2023-08-06T00:03:06;6.13;;;4.73;;
13122;SDS011;6627;50.920;12.050;2023-08-06T00:05:43;5.70;;;5.00;;
13122;SDS011;6627;50.920;12.050;2023-08-06T00:08:14;4.80;;;4.37;;
13122;SDS011;6627;50.920;12.050;2023-08-06T00:10:47;7.03;;;4.63;;
13122;SDS011;6627;50.920;12.050;2023-08-06T00:13:21;5.23;;;4.40;;
13122;SDS011;6627;50.920;12.050;2023-08-06T00:15:53;3.87;;;3.57;;
13122;SDS011;6627;50.920;12.050;2023-08-06T00:18:25;5.10;;;3.37;;
13122;SDS011;6627;50.920;12.050;2023-08-06T00:20:57;6.23;;;3.10;;
13122;SDS011;6627;50.920;12.050;2023-08-06T00:23:27;4.10;;;2.80;;
13122;SDS011;6627;50.920;12.050;2023-08-06T00:25:59;3.87;;;2.90;;
13122;SDS011;6627;50.920;12.050;2023-08-06T00:28:29;5.03;;;2.40;;
13122;SDS011;6627;50.920;12.050;2023-08-06T00:30:58;4.80;;;2.30;;
13122;SDS011;6627;50.920;12.050;2023-08-06T00:33:32;2.67;;;2.20;;
13122;SDS011;6627;50.920;12.050;2023-08-06T00:36:04;3.47;;;2.30;;
13122;SDS011;6627;50.920;12.050;2023-08-06T00:38:36;2.60;;;2.00;;
13122;SDS011;6627;50.920;12.050;2023-08-06T00:41:07;3.13;;;1.97;;
13122;SDS011;6627;50.920;12.050;2023-08-06T00:43:39;1.90;;;1.80;;
13122;SDS011;6627;50.920;12.050;2023-08-06T00:46:08;2.00;;;1.80;;
13122;SDS011;6627;50.920;12.050;2023-08-06T00:48:39;2.00;;;1.80;;
13122;SDS011;6627;50.920;12.050;2023-08-06T00:51:12;2.00;;;1.80;;
13122;SDS011;6627;50.920;12.050;2023-08-06T00:53:47;2.30;;;2.10;;
13122;SDS011;6627;50.920;12.050;2023-08-06T00:56:20;2.53;;;2.00;;
13122;SDS011;6627;50.920;12.050;2023-08-06T00:58:52;2.13;;;1.83;;
13122;SDS011;6627;50.920;12.050;2023-08-06T01:01:24;1.90;;;1.70;;
13122;SDS011;6627;50.920;12.050;2023-08-06T01:03:55;3.43;;;1.60;;
13122;SDS011;6627;50.920;12.050;2023-08-06T01:06:29;2.33;;;1.83;;
13122;SDS011;6627;50.920;12.050;2023-08-06T01:09:20;3.87;;;2.00;;
13122;SDS011;6627;50.920;12.050;2023-08-06T01:12:06;3.97;;;1.77;;
13122;SDS011;6627;50.920;12.050;2023-08-06T01:14:53;2.33;;;1.50;;
13122;SDS011;6627;50.920;12.050;2023-08-06T01:17:36;2.03;;;1.50;;
13122;SDS011;6627;50.920;12.050;2023-08-06T01:20:08;2.30;;;1.50;;
13122;SDS011;6627;50.920;12.050;2023-08-06T01:22:39;1.63;;;1.53;;
13122;SDS011;6627;50.920;12.050;2023-08-06T01:25:08;2.03;;;1.60;;
13122;SDS011;6627;50.920;12.050;2023-08-06T01:27:42;1.83;;;1.73;;
13122;SDS011;6627;50.920;12.050;2023-08-06T01:30:20;1.63;;;1.53;;
13122;SDS011;6627;50.920;12.050;2023-08-06T01:32:58;2.67;;;1.83;;
13122;SDS011;6627;50.920;12.050;2023-08-06T01:35:36;2.00;;;1.80;;
13122;SDS011;6627;50.920;12.050;2023-08-06T01:38:08;1.77;;;1.67;;
13122;SDS011;6627;50.920;12.050;2023-08-06T01:40:41;3.47;;;2.03;;
13122;SDS011;6627;50.920;12.050;2023-08-06T01:43:09;2.47;;;1.80;;
13122;SDS011;6627;50.920;12.050;2023-08-06T01:45:40;2.57;;;1.80;;
13122;SDS011;6627;50.920;12.050;2023-08-06T01:48:09;2.30;;;1.90;;
13122;SDS011;6627;50.920;12.050;2023-08-06T01:50:41;2.87;;;1.70;;
13122;SDS011;6627;50.920;12.050;2023-08-06T01:53:14;2.80;;;1.80;;
13122;SDS011;6627;50.920;12.050;2023-08-06T01:55:47;2.33;;;2.07;;
13122;SDS011;6627;50.920;12.050;2023-08-06T01:58:17;3.87;;;2.20;;
13122;SDS011;6627;50.920;12.050;2023-08-06T02:00:45;2.03;;;1.93;;
13122;SDS011;6627;50.920;12.050;2023-08-06T02:03:13;2.67;;;2.10;;
13122;SDS011;6627;50.920;12.050;2023-08-06T02:05:43;2.03;;;1.90;;
13122;SDS011;6627;50.920;12.050;2023-08-06T02:08:18;4.23;;;2.27;;
13122;SDS011;6627;50.920;12.050;2023-08-06T02:10:47;4.37;;;2.10;;
13122;SDS011;6627;50.920;12.050;2023-08-06T02:13:19;2.13;;;1.73;;
13122;SDS011;6627;50.920;12.050;2023-08-06T02:15:47;3.93;;;1.93;;
13122;SDS011;6627;50.920;12.050;2023-08-06T02:18:16;2.13;;;1.93;;
13122;SDS011;6627;50.920;12.050;2023-08-06T02:20:54;2.07;;;1.93;;
13122;SDS011;6627;50.920;12.050;2023-08-06T02:23:26;2.30;;;1.80;;
13122;SDS011;6627;50.920;12.050;2023-08-06T02:25:57;2.17;;;1.90;;
13122;SDS011;6627;50.920;12.050;2023-08-06T02:28:31;2.60;;;2.20;;
13122;SDS011;6627;50.920;12.050;2023-08-06T02:31:01;2.70;;;2.07;;
13122;SDS011;6627;50.920;12.050;2023-08-06T02:33:29;4.20;;;2.27;;
13122;SDS011;6627;50.920;12.050;2023-08-06T02:36:00;2.23;;;2.03;;
13122;SDS011;6627;50.920;12.050;2023-08-06T02:38:35;3.13;;;1.80;;
13122;SDS011;6627;50.920;12.050;2023-08-06T02:41:10;2.50;;;1.73;;
13122;SDS011;6627;50.920;12.050;2023-08-06T02:43:41;1.93;;;1.77;;
13122;SDS011;6627;50.920;12.050;2023-08-06T02:46:15;2.30;;;2.00;;
13122;SDS011;6627;50.920;12.050;2023-08-06T02:48:49;4.33;;;2.10;;
13122;SDS011;6627;50.920;12.050;2023-08-06T02:51:21;5.80;;;2.20;;
13122;SDS011;6627;50.920;12.050;2023-08-06T02:53:54;2.27;;;2.07;;
13122;SDS011;6627;50.920;12.050;2023-08-06T02:56:23;2.20;;;2.00;;
13122;SDS011;6627;50.920;12.050;2023-08-06T02:58:52;4.17;;;2.27;;
13122;SDS011;6627;50.920;12.050;2023-08-06T03:01:24;2.20;;;1.93;;
13122;SDS011;6627;50.920;12.050;2023-08-06T03:03:59;2.70;;;1.80;;
13122;SDS011;6627;50.920;12.050;2023-08-06T03:06:29;2.23;;;1.97;;
13122;SDS011;6627;50.920;12.050;2023-08-06T03:09:05;2.20;;;2.00;;
13122;SDS011;6627;50.920;12.050;2023-08-06T03:11:35;14.93;;;2.37;;
13122;SDS011;6627;50.920;12.050;2023-08-06T03:14:06;2.90;;;2.30;;
13122;SDS011;6627;50.920;12.050;2023-08-06T03:16:38;3.20;;;2.23;;
13122;SDS011;6627;50.920;12.050;2023-08-06T03:19:11;2.40;;;2.20;;
13122;SDS011;6627;50.920;12.050;2023-08-06T03:21:39;2.37;;;2.17;;
13122;SDS011;6627;50.920;12.050;2023-08-06T03:24:09;3.03;;;2.20;;
13122;SDS011;6627;50.920;12.050;2023-08-06T03:26:42;2.83;;;2.50;;
13122;SDS011;6627;50.920;12.050;2023-08-06T03:29:14;2.40;;;2.20;;
13122;SDS011;6627;50.920;12.050;2023-08-06T03:31:47;2.30;;;2.00;;
13122;SDS011;6627;50.920;12.050;2023-08-06T03:34:18;2.90;;;2.00;;
13122;SDS011;6627;50.920;12.050;2023-08-06T03:36:51;2.27;;;2.00;;
13122;SDS011;6627;50.920;12.050;2023-08-06T03:39:21;1.93;;;1.83;;
13122;SDS011;6627;50.920;12.050;2023-08-06T03:41:55;2.80;;;2.50;;
13122;SDS011;6627;50.920;12.050;2023-08-06T03:44:28;2.97;;;2.17;;
13122;SDS011;6627;50.920;12.050;2023-08-06T03:46:57;2.10;;;2.00;;
13122;SDS011;6627;50.920;12.050;2023-08-06T03:49:32;2.50;;;2.27;;
13122;SDS011;6627;50.920;12.050;2023-08-06T03:52:07;4.93;;;2.30;;
13122;SDS011;6627;50.920;12.050;2023-08-06T03:54:39;3.47;;;2.30;;
13122;SDS011;6627;50.920;12.050;2023-08-06T03:57:14;3.27;;;2.10;;
13122;SDS011;6627;50.920;12.050;2023-08-06T03:59:48;3.73;;;2.13;;
13122;SDS011;6627;50.920;12.050;2023-08-06T04:02:21;3.20;;;2.23;;
13122;SDS011;6627;50.920;12.050;2023-08-06T04:04:52;3.00;;;2.27;;
13122;SDS011;6627;50.920;12.050;2023-08-06T04:07:25;3.13;;;2.50;;
13122;SDS011;6627;50.920;12.050;2023-08-06T04:10:01;4.33;;;2.60;;
13122;SDS011;6627;50.920;12.050;2023-08-06T04:12:33;2.60;;;2.40;;
13122;SDS011;6627;50.920;12.050;2023-08-06T04:15:07;3.00;;;2.20;;
13122;SDS011;6627;50.920;12.050;2023-08-06T04:17:38;2.63;;;2.00;;
13122;SDS011;6627;50.920;12.050;2023-08-06T04:20:11;2.20;;;2.00;;
13122;SDS011;6627;50.920;12.050;2023-08-06T04:22:42;2.23;;;2.03;;
13122;SDS011;6627;50.920;12.050;2023-08-06T04:25:16;4.17;;;2.10;;
13122;SDS011;6627;50.920;12.050;2023-08-06T04:27:50;2.30;;;2.10;;
13122;SDS011;6627;50.920;12.050;2023-08-06T04:30:22;2.27;;;2.07;;
13122;SDS011;6627;50.920;12.050;2023-08-06T04:32:56;3.20;;;2.20;;
13122;SDS011;6627;50.920;12.050;2023-08-06T04:35:27;3.30;;;1.90;;
13122;SDS011;6627;50.920;12.050;2023-08-06T04:38:00;3.53;;;2.30;;
13122;SDS011;6627;50.920;12.050;2023-08-06T04:40:31;2.53;;;2.33;;
13122;SDS011;6627;50.920;12.050;2023-08-06T04:43:05;2.37;;;2.17;;
13122;SDS011;6627;50.920;12.050;2023-08-06T04:45:37;2.40;;;2.20;;
13122;SDS011;6627;50.920;12.050;2023-08-06T04:48:06;2.67;;;2.20;;
13122;SDS011;6627;50.920;12.050;2023-08-06T04:50:35;2.43;;;2.20;;
13122;SDS011;6627;50.920;12.050;2023-08-06T04:53:07;2.50;;;2.30;;
13122;SDS011;6627;50.920;12.050;2023-08-06T04:55:43;2.30;;;2.10;;
13122;SDS011;6627;50.920;12.050;2023-08-06T04:58:17;2.60;;;2.40;;
13122;SDS011;6627;50.920;12.050;2023-08-06T05:00:50;3.37;;;2.27;;
13122;SDS011;6627;50.920;12.050;2023-08-06T05:03:24;4.53;;;2.10;;
13122;SDS011;6627;50.920;12.050;2023-08-06T05:05:52;3.50;;;2.00;;
13122;SDS011;6627;50.920;12.050;2023-08-06T05:08:25;2.43;;;2.07;;
13122;SDS011;6627;50.920;12.050;2023-08-06T05:10:55;2.33;;;2.13;;
13122;SDS011;6627;50.920;12.050;2023-08-06T05:13:26;2.03;;;1.90;;
13122;SDS011;6627;50.920;12.050;2023-08-06T05:16:00;2.90;;;2.20;;
13122;SDS011;6627;50.920;12.050;2023-08-06T05:18:33;2.20;;;2.00;;
13122;SDS011;6627;50.920;12.050;2023-08-06T05:21:07;4.60;;;2.20;;
13122;SDS011;6627;50.920;12.050;2023-08-06T05:23:39;2.53;;;2.10;;
13122;SDS011;6627;50.920;12.050;2023-08-06T05:26:14;2.87;;;2.10;;
13122;SDS011;6627;50.920;12.050;2023-08-06T05:28:47;2.60;;;2.10;;
13122;SDS011;6627;50.920;12.050;2023-08-06T05:31:19;2.63;;;1.83;;
13122;SDS011;6627;50.920;12.050;2023-08-06T05:33:49;3.40;;;2.23;;
13122;SDS011;6627;50.920;12.050;2023-08-06T05:36:24;2.13;;;1.93;;
13122;SDS011;6627;50.920;12.050;2023-08-06T05:38:55;3.10;;;2.20;;
13122;SDS011;6627;50.920;12.050;2023-08-06T05:41:28;4.23;;;2.07;;
13122;SDS011;6627;50.920;12.050;2023-08-06T05:44:05;2.20;;;2.00;;
13122;SDS011;6627;50.920;12.050;2023-08-06T05:46:37;2.97;;;2.27;;
13122;SDS011;6627;50.920;12.050;2023-08-06T05:49:16;4.00;;;2.07;;
13122;SDS011;6627;50.920;12.050;2023-08-06T05:51:50;3.93;;;1.87;;
13122;SDS011;6627;50.920;12.050;2023-08-06T05:54:25;2.57;;;2.10;;
13122;SDS011;6627;50.920;12.050;2023-08-06T05:57:03;2.40;;;2.20;;
13122;SDS011;6627;50.920;12.050;2023-08-06T05:59:33;2.30;;;2.10;;
13122;SDS011;6627;50.920;12.050;2023-08-06T06:02:10;4.03;;;2.20;;
13122;SDS011;6627;50.920;12.050;2023-08-06T06:04:43;2.60;;;2.00;;
13122;SDS011;6627;50.920;12.050;2023-08-06T06:07:15;2.40;;;2.20;;
13122;SDS011;6627;50.920;12.050;2023-08-06T06:10:00;2.50;;;2.30;;
13122;SDS011;6627;50.920;12.050;2023-08-06T06:12:34;4.10;;;2.33;;
13122;SDS011;6627;50.920;12.050;2023-08-06T06:15:14;3.37;;;2.60;;
13122;SDS011;6627;50.920;12.050;2023-08-06T06:17:47;2.40;;;2.20;;
13122;SDS011;6627;50.920;12.050;2023-08-06T06:20:22;3.60;;;2.50;;
13122;SDS011;6627;50.920;12.050;2023-08-06T06:22:51;3.50;;;2.50;;
13122;SDS011;6627;50.920;12.050;2023-08-06T06:25:28;2.90;;;2.70;;
13122;SDS011;6627;50.920;12.050;2023-08-06T06:28:00;2.73;;;2.30;;
13122;SDS011;6627;50.920;12.050;2023-08-06T06:30:30;3.10;;;2.20;;
13122;SDS011;6627;50.920;12.050;2023-08-06T06:33:04;2.70;;;2.40;;
13122;SDS011;6627;50.920;12.050;2023-08-06T06:35:33;2.40;;;2.20;;
13122;SDS011;6627;50.920;12.050;2023-08-06T06:38:07;3.30;;;2.30;;
13122;SDS011;6627;50.920;12.050;2023-08-06T06:40:37;2.67;;;2.30;;
13122;SDS011;6627;50.920;12.050;2023-08-06T06:43:12;2.40;;;2.20;;
13122;SDS011;6627;50.920;12.050;2023-08-06T06:45:52;3.17;;;2.17;;
13122;SDS011;6627;50.920;12.050;2023-08-06T06:48:26;3.20;;;2.30;;
13122;SDS011;6627;50.920;12.050;2023-08-06T06:51:03;2.33;;;2.03;;
13122;SDS011;6627;50.920;12.050;2023-08-06T06:53:38;2.50;;;2.30;;
13122;SDS011;6627;50.920;12.050;2023-08-06T06:56:12;2.33;;;2.10;;
13122;SDS011;6627;50.920;12.050;2023-08-06T06:58:49;2.20;;;2.00;;
13122;SDS011;6627;50.920;12.050;2023-08-06T07:01:24;5.67;;;2.07;;
13122;SDS011;6627;50.920;12.050;2023-08-06T07:03:52;2.27;;;2.10;;
13122;SDS011;6627;50.920;12.050;2023-08-06T07:06:21;4.27;;;2.40;;
13122;SDS011;6627;50.920;12.050;2023-08-06T07:08:52;1.97;;;1.87;;
13122;SDS011;6627;50.920;12.050;2023-08-06T07:11:26;2.17;;;1.97;;
13122;SDS011;6627;50.920;12.050;2023-08-06T07:14:02;2.70;;;2.00;;
13122;SDS011;6627;50.920;12.050;2023-08-06T07:16:33;2.10;;;2.00;;
13122;SDS011;6627;50.920;12.050;2023-08-06T07:19:11;2.27;;;1.80;;
13122;SDS011;6627;50.920;12.050;2023-08-06T07:21:40;2.63;;;1.90;;
13122;SDS011;6627;50.920;12.050;2023-08-06T07:24:10;3.03;;;2.23;;
13122;SDS011;6627;50.920;12.050;2023-08-06T07:26:43;2.27;;;2.07;;
13122;SDS011;6627;50.920;12.050;2023-08-06T07:29:13;2.10;;;1.90;;
13122;SDS011;6627;50.920;12.050;2023-08-06T07:31:55;3.27;;;1.87;;
13122;SDS011;6627;50.920;12.050;2023-08-06T07:34:31;5.87;;;2.03;;
13122;SDS011;6627;50.920;12.050;2023-08-06T07:37:07;2.20;;;2.00;;
13122;SDS011;6627;50.920;12.050;2023-08-06T07:39:42;3.00;;;2.23;;
13122;SDS011;6627;50.920;12.050;2023-08-06T07:42:18;2.33;;;2.13;;
13122;SDS011;6627;50.920;12.050;2023-08-06T07:44:53;3.53;;;2.13;;
13122;SDS011;6627;50.920;12.050;2023-08-06T07:47:28;2.00;;;1.80;;
13122;SDS011;6627;50.920;12.050;2023-08-06T07:50:01;2.90;;;2.10;;
13122;SDS011;6627;50.920;12.050;2023-08-06T07:52:32;2.60;;;2.40;;
13122;SDS011;6627;50.920;12.050;2023-08-06T07:55:03;3.50;;;2.10;;
13122;SDS011;6627;50.920;12.050;2023-08-06T07:57:38;4.70;;;2.20;;
13122;SDS011;6627;50.920;12.050;2023-08-06T08:00:09;2.23;;;1.90;;
13122;SDS011;6627;50.920;12.050;2023-08-06T08:02:45;2.40;;;2.20;;
13122;SDS011;6627;50.920;12.050;2023-08-06T08:05:18;2.40;;;2.20;;
13122;SDS011;6627;50.920;12.050;2023-08-06T08:07:47;4.83;;;2.10;;
13122;SDS011;6627;50.920;12.050;2023-08-06T08:10:22;3.33;;;2.10;;
13122;SDS011;6627;50.920;12.050;2023-08-06T08:12:57;2.27;;;1.90;;
13122;SDS011;6627;50.920;12.050;2023-08-06T08:15:34;2.10;;;2.00;;
13122;SDS011;6627;50.920;12.050;2023-08-06T08:18:07;1.97;;;1.77;;
13122;SDS011;6627;50.920;12.050;2023-08-06T08:20:36;2.40;;;1.93;;
13122;SDS011;6627;50.920;12.050;2023-08-06T08:23:06;2.40;;;2.07;;
13122;SDS011;6627;50.920;12.050;2023-08-06T08:25:39;2.77;;;2.10;;
13122;SDS011;6627;50.920;12.050;2023-08-06T08:28:13;2.00;;;1.80;;
13122;SDS011;6627;50.920;12.050;2023-08-06T08:30:43;1.93;;;1.83;;
13122;SDS011;6627;50.920;12.050;2023-08-06T08:33:16;2.10;;;1.90;;
13122;SDS011;6627;50.920;12.050;2023-08-06T08:35:46;2.33;;;1.87;;
13122;SDS011;6627;50.920;12.050;2023-08-06T08:38:20;2.53;;;2.07;;
13122;SDS011;6627;50.920;12.050;2023-08-06T08:40:51;2.40;;;2.20;;
13122;SDS011;6627;50.920;12.050;2023-08-06T08:43:29;2.47;;;2.13;;
13122;SDS011;6627;50.920;12.050;2023-08-06T08:46:02;2.33;;;1.80;;
13122;SDS011;6627;50.920;12.050;2023-08-06T08:48:35;2.10;;;1.90;;
13122;SDS011;6627;50.920;12.050;2023-08-06T08:51:08;2.17;;;1.90;;
13122;SDS011;6627;50.920;12.050;2023-08-06T08:53:45;2.07;;;1.87;;
13122;SDS011;6627;50.920;12.050;2023-08-06T08:56:25;2.13;;;1.93;;
13122;SDS011;6627;50.920;12.050;2023-08-06T08:58:53;2.40;;;2.00;;
13122;SDS011;6627;50.920;12.050;2023-08-06T09:01:26;2.30;;;1.90;;
13122;SDS011;6627;50.920;12.050;2023-08-06T09:04:04;2.13;;;1.90;;
13122;SDS011;6627;50.920;12.050;2023-08-06T09:06:36;3.30;;;2.00;;
13122;SDS011;6627;50.920;12.050;2023-08-06T09:09:09;2.43;;;2.03;;
13122;SDS011;6627;50.920;12.050;2023-08-06T09:11:52;2.17;;;1.97;;
13122;SDS011;6627;50.920;12.050;2023-08-06T09:14:32;3.73;;;2.23;;
13122;SDS011;6627;50.920;12.050;2023-08-06T09:17:09;6.93;;;2.40;;
13122;SDS011;6627;50.920;12.050;2023-08-06T09:19:41;4.07;;;2.20;;
13122;SDS011;6627;50.920;12.050;2023-08-06T09:22:17;2.07;;;1.90;;
13122;SDS011;6627;50.920;12.050;2023-08-06T09:24:49;2.50;;;2.00;;
13122;SDS011;6627;50.920;12.050;2023-08-06T09:27:22;2.97;;;2.20;;
13122;SDS011;6627;50.920;12.050;2023-08-06T09:29:56;2.30;;;2.10;;
13122;SDS011;6627;50.920;12.050;2023-08-06T09:32:27;2.10;;;1.90;;
13122;SDS011;6627;50.920;12.050;2023-08-06T09:35:18;2.53;;;2.27;;
13122;SDS011;6627;50.920;12.050;2023-08-06T09:38:01;2.07;;;1.80;;
13122;SDS011;6627;50.920;12.050;2023-08-06T09:40:39;2.50;;;1.97;;
13122;SDS011;6627;50.920;12.050;2023-08-06T09:43:11;1.83;;;1.73;;
13122;SDS011;6627;50.920;12.050;2023-08-06T09:45:45;2.43;;;1.80;;
13122;SDS011;6627;50.920;12.050;2023-08-06T09:48:17;3.60;;;2.00;;
13122;SDS011;6627;50.920;12.050;2023-08-06T09:50:53;2.30;;;2.10;;
13122;SDS011;6627;50.920;12.050;2023-08-06T09:53:29;2.37;;;2.10;;
13122;SDS011;6627;50.920;12.050;2023-08-06T09:56:05;2.97;;;2.20;;
13122;SDS011;6627;50.920;12.050;2023-08-06T09:58:42;3.93;;;2.20;;
13122;SDS011;6627;50.920;12.050;2023-08-06T10:01:11;2.20;;;1.80;;
13122;SDS011;6627;50.920;12.050;2023-08-06T10:03:48;3.23;;;2.00;;
13122;SDS011;6627;50.920;12.050;2023-08-06T10:06:24;1.93;;;1.83;;
13122;SDS011;6627;50.920;12.050;2023-08-06T10:08:58;2.50;;;2.20;;
13122;SDS011;6627;50.920;12.050;2023-08-06T10:11:28;2.17;;;1.97;;
13122;SDS011;6627;50.920;12.050;2023-08-06T10:14:11;2.43;;;1.90;;
13122;SDS011;6627;50.920;12.050;2023-08-06T10:16:53;2.70;;;1.97;;
13122;SDS011;6627;50.920;12.050;2023-08-06T10:19:31;3.67;;;1.90;;
13122;SDS011;6627;50.920;12.050;2023-08-06T10:22:09;2.97;;;1.67;;
13122;SDS011;6627;50.920;12.050;2023-08-06T10:24:51;5.40;;;2.10;;
13122;SDS011;6627;50.920;12.050;2023-08-06T10:27:28;2.10;;;1.90;;
13122;SDS011;6627;50.920;12.050;2023-08-06T10:32:58;2.37;;;2.17;;
13122;SDS011;6627;50.920;12.050;2023-08-06T10:35:38;3.00;;;2.07;;
13122;SDS011;6627;50.920;12.050;2023-08-06T10:38:12;2.40;;;2.20;;
13122;SDS011;6627;50.920;12.050;2023-08-06T10:40:48;2.40;;;2.00;;
13122;SDS011;6627;50.920;12.050;2023-08-06T10:43:36;2.27;;;1.90;;
13122;SDS011;6627;50.920;12.050;2023-08-06T10:46:08;2.50;;;2.20;;
13122;SDS011;6627;50.920;12.050;2023-08-06T10:48:45;3.23;;;2.07;;
13122;SDS011;6627;50.920;12.050;2023-08-06T10:51:18;2.57;;;2.10;;
13122;SDS011;6627;50.920;12.050;2023-08-06T10:53:51;3.43;;;1.90;;
13122;SDS011;6627;50.920;12.050;2023-08-06T10:56:23;2.07;;;1.77;;
13122;SDS011;6627;50.920;12.050;2023-08-06T10:58:59;2.17;;;1.87;;
13122;SDS011;6627;50.920;12.050;2023-08-06T11:01:38;2.93;;;1.87;;
13122;SDS011;6627;50.920;12.050;2023-08-06T11:04:13;2.90;;;2.10;;
13122;SDS011;6627;50.920;12.050;2023-08-06T11:06:53;3.50;;;1.90;;
13122;SDS011;6627;50.920;12.050;2023-08-06T11:09:21;2.80;;;1.80;;
13122;SDS011;6627;50.920;12.050;2023-08-06T11:11:49;2.63;;;1.70;;
13122;SDS011;6627;50.920;12.050;2023-08-06T11:14:20;4.20;;;1.73;;
13122;SDS011;6627;50.920;12.050;2023-08-06T11:16:50;2.10;;;1.67;;
13122;SDS011;6627;50.920;12.050;2023-08-06T11:19:29;2.00;;;1.80;;
13122;SDS011;6627;50.920;12.050;2023-08-06T11:22:07;3.77;;;1.83;;
13122;SDS011;6627;50.920;12.050;2023-08-06T11:24:45;4.03;;;1.90;;
13122;SDS011;6627;50.920;12.050;2023-08-06T11:27:17;2.10;;;1.90;;
13122;SDS011;6627;50.920;12.050;2023-08-06T11:29:47;2.17;;;1.67;;
13122;SDS011;6627;50.920;12.050;2023-08-06T11:32:22;2.63;;;1.70;;
13122;SDS011;6627;50.920;12.050;2023-08-06T11:35:08;2.60;;;1.87;;
13122;SDS011;6627;50.920;12.050;2023-08-06T11:37:47;1.87;;;1.77;;
13122;SDS011;6627;50.920;12.050;2023-08-06T11:40:28;1.70;;;1.60;;
13122;SDS011;6627;50.920;12.050;2023-08-06T11:43:05;1.87;;;1.70;;
13122;SDS011;6627;50.920;12.050;2023-08-06T11:45:35;2.07;;;1.80;;
13122;SDS011;6627;50.920;12.050;2023-08-06T11:48:06;2.73;;;1.70;;
13122;SDS011;6627;50.920;12.050;2023-08-06T11:50:41;2.30;;;2.10;;
13122;SDS011;6627;50.920;12.050;2023-08-06T11:53:19;1.73;;;1.50;;
13122;SDS011;6627;50.920;12.050;2023-08-06T11:55:53;2.00;;;1.80;;
13122;SDS011;6627;50.920;12.050;2023-08-06T11:58:24;1.60;;;1.50;;
13122;SDS011;6627;50.920;12.050;2023-08-06T12:01:00;2.00;;;1.80;;
13122;SDS011;6627;50.920;12.050;2023-08-06T12:03:42;2.77;;;1.90;;
13122;SDS011;6627;50.920;12.050;2023-08-06T12:06:13;2.00;;;1.80;;
13122;SDS011;6627;50.920;12.050;2023-08-06T12:08:50;4.10;;;1.50;;
13122;SDS011;6627;50.920;12.050;2023-08-06T12:11:25;2.63;;;1.70;;
13122;SDS011;6627;50.920;12.050;2023-08-06T12:13:57;1.87;;;1.70;;
13122;SDS011;6627;50.920;12.050;2023-08-06T12:16:29;1.93;;;1.70;;
13122;SDS011;6627;50.920;12.050;2023-08-06T12:18:59;1.93;;;1.63;;
13122;SDS011;6627;50.920;12.050;2023-08-06T12:21:31;1.80;;;1.57;;
13122;SDS011;6627;50.920;12.050;2023-08-06T12:24:10;1.87;;;1.30;;
13122;SDS011;6627;50.920;12.050;2023-08-06T12:26:41;1.87;;;1.43;;
13122;SDS011;6627;50.920;12.050;2023-08-06T12:29:16;4.30;;;1.80;;
13122;SDS011;6627;50.920;12.050;2023-08-06T12:31:56;2.20;;;1.60;;
13122;SDS011;6627;50.920;12.050;2023-08-06T12:34:27;2.10;;;1.80;;
13122;SDS011;6627;50.920;12.050;2023-08-06T12:37:04;3.70;;;1.90;;
13122;SDS011;6627;50.920;12.050;2023-08-06T12:39:40;3.50;;;1.70;;
13122;SDS011;6627;50.920;12.050;2023-08-06T12:42:09;4.50;;;2.10;;
13122;SDS011;6627;50.920;12.050;2023-08-06T12:44:43;4.43;;;2.20;;
13122;SDS011;6627;50.920;12.050;2023-08-06T12:47:17;5.33;;;1.90;;
13122;SDS011;6627;50.920;12.050;2023-08-06T12:49:55;2.97;;;1.90;;
13122;SDS011;6627;50.920;12.050;2023-08-06T12:52:29;2.20;;;2.00;;
13122;SDS011;6627;50.920;12.050;2023-08-06T12:55:06;2.03;;;1.77;;
13122;SDS011;6627;50.920;12.050;2023-08-06T12:57:37;5.47;;;2.00;;
13122;SDS011;6627;50.920;12.050;2023-08-06T13:00:08;4.00;;;1.63;;
13122;SDS011;6627;50.920;12.050;2023-08-06T13:02:44;2.77;;;1.70;;
13122;SDS011;6627;50.920;12.050;2023-08-06T13:05:12;1.90;;;1.67;;
13122;SDS011;6627;50.920;12.050;2023-08-06T13:07:57;1.70;;;1.60;;
13122;SDS011;6627;50.920;12.050;2023-08-06T13:10:28;1.90;;;1.70;;
13122;SDS011;6627;50.920;12.050;2023-08-06T13:13:01;2.13;;;1.80;;
13122;SDS011;6627;50.920;12.050;2023-08-06T13:15:32;2.13;;;1.80;;
13122;SDS011;6627;50.920;12.050;2023-08-06T13:18:09;2.50;;;1.93;;
13122;SDS011;6627;50.920;12.050;2023-08-06T13:20:39;2.10;;;1.90;;
13122;SDS011;6627;50.920;12.050;2023-08-06T13:23:11;2.60;;;1.90;;
13122;SDS011;6627;50.920;12.050;2023-08-06T13:25:54;2.60;;;1.77;;
13122;SDS011;6627;50.920;12.050;2023-08-06T13:28:25;3.00;;;1.77;;
13122;SDS011;6627;50.920;12.050;2023-08-06T13:30:59;1.80;;;1.60;;
13122;SDS011;6627;50.920;12.050;2023-08-06T13:33:30;1.67;;;1.57;;
13122;SDS011;6627;50.920;12.050;2023-08-06T13:36:10;1.93;;;1.60;;
13122;SDS011;6627;50.920;12.050;2023-08-06T13:38:42;3.43;;;1.73;;
13122;SDS011;6627;50.920;12.050;2023-08-06T13:41:16;2.13;;;1.90;;
13122;SDS011;6627;50.920;12.050;2023-08-06T13:43:46;1.90;;;1.53;;
13122;SDS011;6627;50.920;12.050;2023-08-06T13:46:17;2.10;;;1.80;;
13122;SDS011;6627;50.920;12.050;2023-08-06T13:48:51;2.70;;;1.90;;
13122;SDS011;6627;50.920;12.050;2023-08-06T13:51:30;4.43;;;2.10;;
13122;SDS011;6627;50.920;12.050;2023-08-06T13:54:01;2.67;;;1.97;;
13122;SDS011;6627;50.920;12.050;2023-08-06T13:56:38;2.07;;;1.60;;
13122;SDS011;6627;50.920;12.050;2023-08-06T13:59:13;2.40;;;1.47;;
13122;SDS011;6627;50.920;12.050;2023-08-06T14:01:52;2.53;;;1.90;;
13122;SDS011;6627;50.920;12.050;2023-08-06T14:04:30;4.10;;;1.53;;
13122;SDS011;6627;50.920;12.050;2023-08-06T14:07:04;2.63;;;1.80;;
13122;SDS011;6627;50.920;12.050;2023-08-06T14:09:39;2.43;;;1.70;;
13122;SDS011;6627;50.920;12.050;2023-08-06T14:12:24;2.10;;;1.80;;
13122;SDS011;6627;50.920;12.050;2023-08-06T14:14:58;2.80;;;1.67;;
13122;SDS011;6627;50.920;12.050;2023-08-06T14:17:42;1.73;;;1.50;;
13122;SDS011;6627;50.920;12.050;2023-08-06T14:20:14;1.60;;;1.50;;
13122;SDS011;6627;50.920;12.050;2023-08-06T14:22:45;1.40;;;1.30;;
13122;SDS011;6627;50.920;12.050;2023-08-06T14:25:23;2.87;;;1.47;;
13122;SDS011;6627;50.920;12.050;2023-08-06T14:28:04;1.50;;;1.20;;
13122;SDS011;6627;50.920;12.050;2023-08-06T14:30:34;2.17;;;1.43;;
13122;SDS011;6627;50.920;12.050;2023-08-06T14:33:09;1.87;;;1.40;;
13122;SDS011;6627;50.920;12.050;2023-08-06T14:35:44;1.83;;;1.30;;
13122;SDS011;6627;50.920;12.050;2023-08-06T14:38:21;4.53;;;1.60;;
13122;SDS011;6627;50.920;12.050;2023-08-06T14:41:03;1.40;;;1.30;;
13122;SDS011;6627;50.920;12.050;2023-08-06T14:43:39;1.67;;;1.40;;
13122;SDS011;6627;50.920;12.050;2023-08-06T14:46:08;1.60;;;1.50;;
13122;SDS011;6627;50.920;12.050;2023-08-06T14:48:39;1.70;;;1.60;;
13122;SDS011;6627;50.920;12.050;2023-08-06T14:51:16;1.50;;;1.40;;
13122;SDS011;6627;50.920;12.050;2023-08-06T14:53:48;2.47;;;1.60;;
13122;SDS011;6627;50.920;12.050;2023-08-06T14:56:28;1.93;;;1.40;;
13122;SDS011;6627;50.920;12.050;2023-08-06T14:59:03;1.87;;;1.67;;
13122;SDS011;6627;50.920;12.050;2023-08-06T15:01:38;1.60;;;1.40;;
13122;SDS011;6627;50.920;12.050;2023-08-06T15:04:13;2.73;;;1.73;;
13122;SDS011;6627;50.920;12.050;2023-08-06T15:06:52;2.67;;;1.43;;
13122;SDS011;6627;50.920;12.050;2023-08-06T15:09:32;2.07;;;1.40;;
13122;SDS011;6627;50.920;12.050;2023-08-06T15:12:07;1.87;;;1.50;;
13122;SDS011;6627;50.920;12.050;2023-08-06T15:14:47;2.27;;;1.50;;
13122;SDS011;6627;50.920;12.050;2023-08-06T15:17:20;1.23;;;1.13;;
13122;SDS011;6627;50.920;12.050;2023-08-06T15:19:57;2.33;;;1.47;;
13122;SDS011;6627;50.920;12.050;2023-08-06T15:22:30;1.77;;;1.33;;
13122;SDS011;6627;50.920;12.050;2023-08-06T15:25:10;2.77;;;1.50;;
13122;SDS011;6627;50.920;12.050;2023-08-06T15:27:38;2.60;;;1.40;;
13122;SDS011;6627;50.920;12.050;2023-08-06T15:30:13;2.43;;;1.70;;